Time;durP1;ratioP1;P1;durP2;ratioP2;P2;SDS_P1;SDS_P2;PMS_P1;PMS_P2;Temp;Humidity;BMP_temperature;BMP_pressure;BME280_temperature;BME280_humidity;BME280_pressure;Samples;Min_cycle;Max_cycle;Signal;HPM_P1;HPM_P2
2022/08/30 00:01:25;;;;;;;7.50;6.80;;;21.90;36.80;;;;;;10531837;28;20238;-75
2022/08/30 00:06:30;;;;;;;6.80;6.20;;;21.80;36.70;;;;;;10531948;28;20303;-76
2022/08/30 00:11:33;;;;;;;6.70;6.10;;;21.60;36.80;;;;;;10531319;28;20246;-75
2022/08/30 00:16:37;;;;;;;6.97;6.40;;;21.40;36.80;;;;;;10531483;28;20733;-75
2022/08/30 00:21:41;;;;;;;7.20;6.50;;;21.40;37.00;;;;;;10531137;28;20249;-76
2022/08/30 00:26:44;;;;;;;7.00;6.40;;;21.30;37.60;;;;;;10530740;28;20234;-76
2022/08/30 00:31:47;;;;;;;5.90;5.50;;;21.30;37.40;;;;;;10529979;28;20266;-76
2022/08/30 00:36:52;;;;;;;6.90;6.30;;;21.30;37.40;;;;;;10530416;28;20734;-76
2022/08/30 00:41:55;;;;;;;6.00;5.50;;;21.30;37.70;;;;;;10530038;28;20257;-76
2022/08/30 00:46:58;;;;;;;6.20;5.77;;;21.30;37.30;;;;;;10530049;28;20233;-75
2022/08/30 00:52:06;;;;;;;7.17;6.57;;;21.20;37.20;;;;;;10534506;28;20234;-75
2022/08/30 00:57:11;;;;;;;6.93;6.27;;;21.20;37.60;;;;;;10545506;28;20223;-76
2022/08/30 01:02:15;;;;;;;6.93;6.23;;;21.10;37.50;;;;;;10551154;28;20219;-76
2022/08/30 01:07:20;;;;;;;6.60;6.03;;;21.10;37.50;;;;;;10549887;28;20215;-76
2022/08/30 01:12:23;;;;;;;6.80;6.07;;;20.90;37.30;;;;;;10551815;28;20737;-76
2022/08/30 01:17:27;;;;;;;7.50;6.90;;;20.70;37.10;;;;;;10547808;28;20219;-76
2022/08/30 01:22:39;;;;;;;6.73;6.13;;;20.50;36.90;;;;;;10552459;28;20778;-76
2022/08/30 01:27:47;;;;;;;7.27;6.67;;;20.50;37.90;;;;;;10551261;28;20230;-76
2022/08/30 01:32:56;;;;;;;6.40;5.90;;;20.40;37.90;;;;;;10555733;28;20227;-76
2022/08/30 01:37:59;;;;;;;7.10;6.40;;;20.40;37.30;;;;;;10546499;28;20219;-76
2022/08/30 01:43:04;;;;;;;5.67;5.27;;;20.40;37.50;;;;;;10552536;28;20219;-76
2022/08/30 01:48:07;;;;;;;6.67;6.07;;;20.40;38.00;;;;;;10553329;28;20230;-76
2022/08/30 01:53:10;;;;;;;7.37;6.73;;;20.30;37.60;;;;;;10560190;28;20222;-76
2022/08/30 01:58:16;;;;;;;6.57;6.07;;;20.30;37.50;;;;;;10556034;28;20756;-75
2022/08/30 02:03:19;;;;;;;7.33;6.73;;;20.30;37.90;;;;;;10563397;28;21042;-76
2022/08/30 02:08:23;;;;;;;7.43;6.83;;;20.20;37.50;;;;;;10550008;28;20228;-75
2022/08/30 02:13:29;;;;;;;6.57;6.07;;;20.10;37.60;;;;;;10558599;28;20309;-76
2022/08/30 02:18:34;;;;;;;6.85;6.35;;;20.10;38.00;;;;;;10551445;28;20672;-76
2022/08/30 02:23:37;;;;;;;7.07;6.53;;;20.00;38.00;;;;;;10558329;28;20231;-76
2022/08/30 02:28:42;;;;;;;6.37;5.87;;;19.90;37.90;;;;;;10559530;28;20746;-76
2022/08/30 02:33:52;;;;;;;5.80;5.40;;;19.80;38.30;;;;;;10560094;28;20219;-76
2022/08/30 02:38:56;;;;;;;5.70;5.20;;;19.80;38.10;;;;;;10550948;28;20231;-76
2022/08/30 02:44:00;;;;;;;5.30;4.90;;;19.80;38.00;;;;;;10552848;28;20215;-76
2022/08/30 02:49:04;;;;;;;5.57;5.17;;;19.80;38.20;;;;;;10554347;28;20211;-76
2022/08/30 02:54:31;;;;;;;5.83;5.30;;;19.70;38.00;;;;;;10547196;28;20231;-76
2022/08/30 02:59:40;;;;;;;6.40;5.90;;;19.70;38.00;;;;;;10551461;28;20223;-76
2022/08/30 03:04:44;;;;;;;5.87;5.43;;;19.70;38.30;;;;;;10554467;28;20601;-76
2022/08/30 03:09:47;;;;;;;5.53;5.13;;;19.70;38.10;;;;;;10549761;28;20222;-76
2022/08/30 03:14:51;;;;;;;5.57;5.17;;;19.70;38.10;;;;;;10564876;28;20313;-76
2022/08/30 03:19:54;;;;;;;5.63;5.13;;;19.70;38.40;;;;;;10558704;28;20266;-76
2022/08/30 03:24:58;;;;;;;6.23;5.77;;;19.60;38.10;;;;;;10560764;28;20229;-76
2022/08/30 03:30:04;;;;;;;5.83;5.43;;;19.60;38.10;;;;;;10550162;28;20223;-76
2022/08/30 03:35:08;;;;;;;6.67;6.07;;;19.50;38.40;;;;;;10560387;28;20231;-76
2022/08/30 03:40:13;;;;;;;6.67;6.17;;;19.50;38.40;;;;;;10552081;28;20775;-77
2022/08/30 03:45:19;;;;;;;6.10;5.50;;;19.50;38.70;;;;;;10551292;28;20218;-76
2022/08/30 03:50:23;;;;;;;5.90;5.40;;;19.40;38.80;;;;;;10556713;28;20238;-76
2022/08/30 03:55:27;;;;;;;5.63;5.13;;;19.40;38.50;;;;;;10549431;28;20228;-75
2022/08/30 04:00:31;;;;;;;5.30;5.00;;;19.40;38.60;;;;;;10557300;28;20254;-77
2022/08/30 04:05:34;;;;;;;6.27;5.77;;;19.30;38.80;;;;;;10548025;28;20235;-75
2022/08/30 04:10:38;;;;;;;6.40;5.87;;;19.30;38.40;;;;;;10554290;28;20222;-76
2022/08/30 04:15:43;;;;;;;6.63;6.03;;;19.30;38.50;;;;;;10548571;28;20231;-76
2022/08/30 04:20:46;;;;;;;5.67;5.27;;;19.20;38.50;;;;;;10545524;28;20700;-76
2022/08/30 04:25:49;;;;;;;6.57;5.97;;;19.10;38.30;;;;;;10551493;28;21917;-76
2022/08/30 04:30:54;;;;;;;6.37;5.77;;;19.10;38.80;;;;;;10558397;28;20226;-76
2022/08/30 04:36:03;;;;;;;6.83;6.10;;;19.00;39.10;;;;;;10548679;28;20728;-76
2022/08/30 04:41:11;;;;;;;6.30;5.80;;;19.00;39.50;;;;;;10550511;28;20227;-75
2022/08/30 04:46:15;;;;;;;6.57;5.97;;;19.00;39.30;;;;;;10549080;28;20221;-76
2022/08/30 04:51:19;;;;;;;6.30;5.80;;;19.00;39.20;;;;;;10552637;28;20254;-76
2022/08/30 04:56:24;;;;;;;8.20;6.27;;;19.10;39.10;;;;;;10555595;28;20586;-76
2022/08/30 05:01:31;;;;;;;7.10;6.40;;;19.10;39.30;;;;;;10543364;28;20231;-76
2022/08/30 05:06:48;;;;;;;6.57;6.07;;;19.00;39.60;;;;;;10551170;28;20230;-76
2022/08/30 05:11:51;;;;;;;6.80;6.03;;;19.00;39.00;;;;;;10538211;28;20249;-76
2022/08/30 05:16:55;;;;;;;7.47;6.67;;;19.00;39.20;;;;;;10553564;28;20211;-76
2022/08/30 05:21:58;;;;;;;6.50;6.00;;;18.90;39.50;;;;;;10548607;28;20223;-76
2022/08/30 05:27:02;;;;;;;6.47;5.87;;;18.90;39.30;;;;;;10549923;28;20338;-76
2022/08/30 05:32:07;;;;;;;6.53;6.03;;;18.90;39.50;;;;;;10555314;28;20310;-75
2022/08/30 05:37:11;;;;;;;7.33;6.63;;;18.80;40.10;;;;;;10543296;28;20226;-75
2022/08/30 05:42:14;;;;;;;7.10;6.50;;;18.80;39.90;;;;;;10555521;28;20230;-76
2022/08/30 05:47:21;;;;;;;7.47;6.87;;;18.70;39.90;;;;;;10539668;28;20302;-76
2022/08/30 05:52:24;;;;;;;6.37;5.87;;;18.60;40.90;;;;;;10545220;28;20230;-75
2022/08/30 05:57:27;;;;;;;8.67;7.80;;;18.60;40.60;;;;;;10545444;28;20734;-76
2022/08/30 06:02:32;;;;;;;8.23;7.60;;;18.60;41.00;;;;;;10542949;28;20628;-76
2022/08/30 06:07:35;;;;;;;8.70;7.90;;;18.70;41.60;;;;;;10553351;28;20226;-76
2022/08/30 06:12:39;;;;;;;8.90;8.03;;;18.80;41.50;;;;;;10559762;28;20604;-76
2022/08/30 06:17:43;;;;;;;8.27;7.67;;;18.90;41.80;;;;;;10549378;28;20232;-76
2022/08/30 06:22:46;;;;;;;12.07;7.87;;;19.00;42.60;;;;;;10563144;28;20231;-77
2022/08/30 06:27:49;;;;;;;8.50;7.80;;;19.10;42.20;;;;;;10576049;28;20227;-76
2022/08/30 06:33:00;;;;;;;7.97;6.97;;;19.20;42.60;;;;;;10581220;28;20227;-76
2022/08/30 06:38:04;;;;;;;9.13;8.33;;;19.30;43.20;;;;;;10581167;28;20225;-77
2022/08/30 06:43:07;;;;;;;8.97;8.20;;;19.40;42.80;;;;;;10581865;28;20231;-77
2022/08/30 06:48:11;;;;;;;10.60;9.80;;;19.50;42.60;;;;;;10582625;28;20231;-77
2022/08/30 06:53:15;;;;;;;10.70;9.60;;;19.60;43.30;;;;;;10584265;28;20235;-77
2022/08/30 06:58:18;;;;;;;10.23;9.33;;;19.70;42.90;;;;;;10584984;28;20234;-78
2022/08/30 07:03:24;;;;;;;10.17;9.27;;;19.80;43.10;;;;;;10558537;28;20670;-78
2022/08/30 07:08:28;;;;;;;9.57;8.87;;;19.90;44.10;;;;;;10585454;28;20219;-78
2022/08/30 07:13:31;;;;;;;10.03;9.13;;;20.10;43.60;;;;;;10585784;28;20603;-78
2022/08/30 07:24:38;;;;;;;12.60;11.40;;;20.40;45.20;;;;;;10584831;28;20243;-77
2022/08/30 07:29:41;;;;;;;12.53;11.23;;;20.60;45.10;;;;;;10584939;28;20229;-78
2022/08/30 07:34:44;;;;;;;11.10;10.10;;;20.80;44.50;;;;;;10584983;28;20227;-78
2022/08/30 07:39:50;;;;;;;12.07;11.07;;;21.00;44.30;;;;;;10584522;28;20286;-78
2022/08/30 07:44:53;;;;;;;11.47;10.47;;;21.20;44.90;;;;;;10584703;28;20235;-78
2022/08/30 07:50:00;;;;;;;10.70;9.80;;;21.40;44.40;;;;;;10584396;28;20297;-78
2022/08/30 07:55:06;;;;;;;11.80;10.77;;;21.70;44.80;;;;;;10583468;28;20223;-78
2022/08/30 08:00:10;;;;;;;11.43;10.43;;;21.90;45.20;;;;;;10582951;28;20241;-77
2022/08/30 08:05:14;;;;;;;11.53;10.53;;;22.20;45.00;;;;;;10583232;28;20711;-77
2022/08/30 08:10:35;;;;;;;11.33;10.23;;;22.40;44.70;;;;;;10582081;28;20235;-77
2022/08/30 08:15:39;;;;;;;10.67;9.87;;;22.70;45.40;;;;;;10581619;28;20230;-77
2022/08/30 08:20:42;;;;;;;11.23;10.23;;;22.90;44.40;;;;;;10582028;28;20234;-77
2022/08/30 08:25:46;;;;;;;10.83;9.73;;;23.20;44.20;;;;;;10581561;28;20233;-77
2022/08/30 08:30:50;;;;;;;11.23;10.23;;;23.50;44.20;;;;;;10581383;28;20314;-77
2022/08/30 08:35:53;;;;;;;11.30;10.30;;;23.80;44.20;;;;;;10580957;28;20645;-78
2022/08/30 08:41:05;;;;;;;10.77;9.97;;;24.00;44.00;;;;;;10580599;28;20227;-78
2022/08/30 08:46:14;;;;;;;10.70;9.80;;;24.30;44.40;;;;;;10581690;28;20237;-76
2022/08/30 08:56:44;;;;;;;9.33;8.53;;;25.00;43.30;;;;;;10580095;28;20227;-77
2022/08/30 09:01:49;;;;;;;9.93;9.07;;;25.30;42.60;;;;;;10579652;28;20230;-77
2022/08/30 09:06:57;;;;;;;9.27;8.47;;;25.60;42.20;;;;;;10579555;28;20231;-77
2022/08/30 09:12:02;;;;;;;8.77;8.17;;;25.80;41.40;;;;;;10579109;28;20222;-78
2022/08/30 09:17:07;;;;;;;9.50;8.70;;;26.10;41.60;;;;;;10579102;28;20223;-77
2022/08/30 09:22:25;;;;;;;8.33;7.63;;;26.30;41.20;;;;;;10579208;28;20256;-78
2022/08/30 09:27:33;;;;;;;8.20;7.50;;;26.60;40.20;;;;;;10578547;28;20691;-77
2022/08/30 09:32:39;;;;;;;7.47;6.87;;;26.90;38.70;;;;;;10579449;28;20231;-77
2022/08/30 09:37:50;;;;;;;7.63;7.03;;;27.10;39.00;;;;;;10580422;28;20252;-77
2022/08/30 09:43:10;;;;;;;7.73;7.13;;;27.30;37.90;;;;;;10578983;28;20230;-78
2022/08/30 09:48:29;;;;;;;6.37;5.97;;;27.50;38.10;;;;;;10579339;28;20253;-78
2022/08/30 09:53:36;;;;;;;6.53;6.00;;;27.70;36.70;;;;;;10580505;28;20321;-77
2022/08/30 09:58:57;;;;;;;6.77;6.27;;;28.00;36.80;;;;;;10579581;28;20239;-77
2022/08/30 10:04:11;;;;;;;6.87;6.17;;;28.10;35.30;;;;;;10586539;28;20234;-77
2022/08/30 10:09:28;;;;;;;6.13;5.67;;;28.30;34.90;;;;;;10587960;28;20218;-78
2022/08/30 10:14:59;;;;;;;5.73;5.33;;;28.40;34.70;;;;;;10588298;28;20265;-77
2022/08/30 10:20:17;;;;;;;5.53;5.03;;;28.50;34.40;;;;;;10587610;28;20736;-78
2022/08/30 10:25:24;;;;;;;5.70;5.23;;;28.70;32.90;;;;;;10587349;28;20235;-77
2022/08/30 10:30:30;;;;;;;5.67;5.27;;;28.90;32.10;;;;;;10587102;28;20237;-77
2022/08/30 10:35:40;;;;;;;5.73;5.30;;;29.10;32.10;;;;;;10587382;28;20749;-77
2022/08/30 10:46:18;;;;;;;5.73;5.23;;;29.40;31.50;;;;;;10572830;28;20223;-77
2022/08/30 10:51:26;;;;;;;5.77;5.37;;;29.60;31.30;;;;;;10586757;27;20237;-78
2022/08/30 10:56:31;;;;;;;5.90;5.37;;;29.60;30.60;;;;;;10585893;28;20227;-78
2022/08/30 11:01:54;;;;;;;5.63;5.13;;;29.60;31.30;;;;;;10585737;28;20223;-77
2022/08/30 11:07:09;;;;;;;5.73;5.33;;;29.60;30.00;;;;;;10585515;28;20223;-77
2022/08/30 11:12:25;;;;;;;5.37;4.97;;;29.50;29.40;;;;;;10584279;28;20219;-77
2022/08/30 11:17:35;;;;;;;5.63;5.13;;;29.40;29.90;;;;;;10584943;28;20226;-77
2022/08/30 11:22:39;;;;;;;5.50;5.07;;;29.40;29.30;;;;;;10585526;28;20235;-76
2022/08/30 11:27:48;;;;;;;5.50;5.10;;;29.50;31.00;;;;;;10584959;28;20222;-77
2022/08/30 11:33:03;;;;;;;5.03;4.67;;;29.60;29.70;;;;;;10582439;28;20230;-77
2022/08/30 11:38:20;;;;;;;5.30;4.90;;;29.70;29.10;;;;;;10583532;28;20236;-77
2022/08/30 11:43:50;;;;;;;6.97;4.87;;;29.70;29.70;;;;;;10581968;28;20266;-77
2022/08/30 11:49:02;;;;;;;5.00;4.60;;;29.70;29.30;;;;;;10580302;28;20227;-77
2022/08/30 11:54:17;;;;;;;5.27;4.87;;;29.80;28.20;;;;;;10578745;28;20247;-77
2022/08/30 11:59:31;;;;;;;5.03;4.63;;;29.80;27.70;;;;;;10579588;28;20341;-77
2022/08/30 12:04:45;;;;;;;4.83;4.53;;;29.80;27.50;;;;;;10578890;28;20234;-77
2022/08/30 12:10:05;;;;;;;4.80;4.50;;;29.90;27.50;;;;;;10578078;28;20232;-77
2022/08/30 12:15:41;;;;;;;4.57;4.27;;;29.90;28.00;;;;;;10577055;28;20226;-77
2022/08/30 12:20:49;;;;;;;5.07;4.67;;;30.00;27.70;;;;;;10577499;28;20258;-77
2022/08/30 12:26:10;;;;;;;4.53;4.13;;;30.00;27.00;;;;;;10579572;28;20236;-78
2022/08/30 12:31:16;;;;;;;4.80;4.50;;;29.90;26.80;;;;;;10581296;28;20236;-77
2022/08/30 12:36:34;;;;;;;4.40;4.10;;;30.00;26.90;;;;;;10578378;28;20520;-77
2022/08/30 12:41:38;;;;;;;4.70;4.30;;;30.10;26.30;;;;;;10581789;28;20226;-77
2022/08/30 12:46:49;;;;;;;4.53;4.20;;;30.20;26.70;;;;;;10581591;28;20223;-77
2022/08/30 12:51:55;;;;;;;4.40;4.10;;;30.20;26.20;;;;;;10582424;28;20234;-77
2022/08/30 12:57:01;;;;;;;4.60;4.30;;;30.30;25.80;;;;;;10581360;28;20363;-77
2022/08/30 13:02:27;;;;;;;8.63;4.50;;;30.40;25.70;;;;;;10577891;28;20227;-77
2022/08/30 13:07:35;;;;;;;4.57;4.10;;;30.50;25.80;;;;;;10576625;28;20226;-77
2022/08/30 13:12:39;;;;;;;5.30;4.90;;;30.50;25.30;;;;;;10576601;28;20234;-77
2022/08/30 13:17:43;;;;;;;5.37;4.97;;;30.50;26.00;;;;;;10577643;28;20250;-77
2022/08/30 13:23:04;;;;;;;4.40;4.10;;;30.30;25.70;;;;;;10577243;28;20238;-77
2022/08/30 13:28:08;;;;;;;5.03;4.53;;;30.20;25.80;;;;;;10577698;28;20226;-77
2022/08/30 13:33:12;;;;;;;4.73;4.33;;;30.20;25.50;;;;;;10576638;28;20227;-76
2022/08/30 13:38:16;;;;;;;4.73;4.33;;;30.30;25.50;;;;;;10580922;28;20231;-77
2022/08/30 13:43:20;;;;;;;4.80;4.50;;;30.20;25.10;;;;;;10584052;28;20604;-77
2022/08/30 13:48:23;;;;;;;4.73;4.43;;;30.20;25.30;;;;;;10584120;28;20218;-77
2022/08/30 13:53:28;;;;;;;4.80;4.40;;;30.20;25.30;;;;;;10585065;28;20230;-77
2022/08/30 13:58:51;;;;;;;4.90;4.60;;;30.20;24.90;;;;;;10584157;28;20226;-77
2022/08/30 14:03:55;;;;;;;4.63;4.23;;;30.20;25.30;;;;;;10585874;28;20227;-78
2022/08/30 14:09:19;;;;;;;4.73;4.43;;;30.30;25.20;;;;;;10586301;28;20250;-77
2022/08/30 14:14:23;;;;;;;4.73;4.13;;;30.30;24.70;;;;;;10586049;28;20589;-77
2022/08/30 14:19:44;;;;;;;5.33;4.63;;;30.40;25.00;;;;;;10584855;28;20230;-77
2022/08/30 14:24:52;;;;;;;4.80;4.40;;;30.40;24.70;;;;;;10585355;27;20227;-77
2022/08/30 14:29:58;;;;;;;4.53;4.23;;;30.30;23.90;;;;;;10585911;28;20231;-77
2022/08/30 14:35:01;;;;;;;4.57;4.27;;;30.20;24.70;;;;;;10586771;28;20231;-77
2022/08/30 14:40:08;;;;;;;4.63;4.33;;;30.20;24.70;;;;;;10586825;28;20242;-77
2022/08/30 14:45:12;;;;;;;5.23;4.63;;;30.20;24.20;;;;;;10586523;28;20226;-78
2022/08/30 14:50:16;;;;;;;4.90;4.50;;;30.30;24.70;;;;;;10586078;28;20230;-78
2022/08/30 14:55:20;;;;;;;5.17;4.67;;;30.30;24.00;;;;;;10586121;28;20715;-78
2022/08/30 15:00:24;;;;;;;5.13;4.73;;;30.40;24.00;;;;;;10586847;28;20226;-77
2022/08/30 15:05:27;;;;;;;4.87;4.50;;;30.50;24.20;;;;;;10586909;28;20226;-77
2022/08/30 15:10:32;;;;;;;5.13;4.70;;;30.50;24.10;;;;;;10585495;28;20237;-77
2022/08/30 15:15:35;;;;;;;5.77;5.30;;;30.60;23.80;;;;;;10584095;28;20231;-77
2022/08/30 15:20:45;;;;;;;5.77;5.37;;;30.60;24.50;;;;;;10583118;28;20233;-77
2022/08/30 15:25:49;;;;;;;5.93;5.53;;;30.60;24.10;;;;;;10582860;28;20249;-77
2022/08/30 15:30:54;;;;;;;5.73;5.33;;;30.60;24.40;;;;;;10582357;28;20227;-78
2022/08/30 15:36:00;;;;;;;5.73;5.33;;;30.50;24.70;;;;;;10582191;28;20325;-77
2022/08/30 15:41:09;;;;;;;5.60;5.20;;;30.40;24.50;;;;;;10582086;28;20235;-78
2022/08/30 15:46:22;;;;;;;5.97;5.47;;;30.30;24.60;;;;;;10582900;28;20235;-77
2022/08/30 15:51:32;;;;;;;5.40;5.00;;;30.30;24.40;;;;;;10581731;28;20234;-77
2022/08/30 15:56:50;;;;;;;5.70;5.23;;;30.30;24.80;;;;;;10582645;28;20223;-77
2022/08/30 16:01:54;;;;;;;5.57;5.17;;;30.30;24.60;;;;;;10582553;28;20342;-77
2022/08/30 16:06:59;;;;;;;6.03;5.60;;;30.30;24.80;;;;;;10581351;28;20235;-77
2022/08/30 16:12:05;;;;;;;6.67;6.07;;;30.30;24.70;;;;;;10581045;28;20742;-78
2022/08/30 16:17:10;;;;;;;5.57;5.17;;;30.20;24.10;;;;;;10581283;28;20258;-77
2022/08/30 16:22:13;;;;;;;5.90;5.47;;;30.20;24.40;;;;;;10578736;28;20227;-76
2022/08/30 16:27:25;;;;;;;5.63;5.23;;;30.20;24.30;;;;;;10578117;28;20284;-77
2022/08/30 16:32:28;;;;;;;5.10;4.70;;;30.20;24.30;;;;;;10578796;28;20223;-77
2022/08/30 16:37:31;;;;;;;5.43;5.03;;;30.10;24.50;;;;;;10577240;28;20246;-77
2022/08/30 16:42:36;;;;;;;5.40;5.07;;;30.10;24.40;;;;;;10577821;28;20736;-77
2022/08/30 16:47:40;;;;;;;5.47;5.07;;;30.10;24.30;;;;;;10577609;28;20753;-78
2022/08/30 16:52:43;;;;;;;5.30;5.00;;;30.00;24.50;;;;;;10577282;28;20230;-77
2022/08/30 16:57:47;;;;;;;6.00;5.50;;;30.00;24.50;;;;;;10576969;28;20235;-77
2022/08/30 17:02:53;;;;;;;5.97;5.37;;;29.90;24.50;;;;;;10576769;28;20279;-76
2022/08/30 17:07:57;;;;;;;5.80;5.40;;;29.90;24.90;;;;;;10576779;28;20868;-77
2022/08/30 17:13:02;;;;;;;5.50;5.10;;;29.80;25.10;;;;;;10575861;28;20241;-77
2022/08/30 17:18:06;;;;;;;5.73;5.23;;;29.70;25.10;;;;;;10575771;28;20250;-77
2022/08/30 17:23:10;;;;;;;5.63;5.20;;;29.60;25.10;;;;;;10576352;28;20234;-77
2022/08/30 17:28:14;;;;;;;5.73;5.30;;;29.50;25.30;;;;;;10576662;28;20237;-78
2022/08/30 17:33:18;;;;;;;5.57;5.17;;;29.40;25.20;;;;;;10576505;28;20300;-76
2022/08/30 17:38:21;;;;;;;5.90;5.27;;;29.40;25.40;;;;;;10575802;28;20241;-77
2022/08/30 17:43:27;;;;;;;7.00;5.20;;;29.20;25.40;;;;;;10576956;28;20281;-77
2022/08/30 17:48:30;;;;;;;5.97;5.40;;;29.20;25.60;;;;;;10575699;28;20284;-76
2022/08/30 17:53:33;;;;;;;6.10;5.70;;;29.00;25.40;;;;;;10575246;28;20227;-77
2022/08/30 17:58:46;;;;;;;6.07;5.47;;;28.90;25.50;;;;;;10575162;28;20231;-77
2022/08/30 18:03:52;;;;;;;5.30;4.90;;;28.80;25.60;;;;;;10574821;28;20229;-77
2022/08/30 18:09:04;;;;;;;5.53;5.13;;;28.70;26.00;;;;;;10574885;28;20238;-77
2022/08/30 18:14:10;;;;;;;5.93;5.40;;;28.70;26.20;;;;;;10574130;28;20243;-77
2022/08/30 18:19:15;;;;;;;6.13;5.53;;;28.60;26.40;;;;;;10574405;28;20231;-77
2022/08/30 18:24:18;;;;;;;5.57;5.17;;;28.40;26.30;;;;;;10578830;28;20603;-77
2022/08/30 18:29:23;;;;;;;5.37;4.97;;;28.30;26.40;;;;;;10581869;28;20733;-77
2022/08/30 18:34:33;;;;;;;5.30;4.90;;;28.20;26.70;;;;;;10581729;28;20251;-77
2022/08/30 18:39:36;;;;;;;5.53;5.13;;;28.00;26.50;;;;;;10581444;28;20736;-77
2022/08/30 18:44:41;;;;;;;5.87;5.47;;;27.80;26.60;;;;;;10581660;28;20334;-77
2022/08/30 18:49:45;;;;;;;5.50;5.07;;;27.60;27.00;;;;;;10581033;28;20223;-77
2022/08/30 18:54:49;;;;;;;5.50;5.10;;;27.50;27.10;;;;;;10581087;28;20238;-77
2022/08/30 18:59:56;;;;;;;5.63;5.23;;;27.30;27.20;;;;;;10583270;28;20322;-77
2022/08/30 19:04:59;;;;;;;5.50;5.10;;;27.20;27.60;;;;;;10583686;28;20243;-77
2022/08/30 19:10:03;;;;;;;6.30;5.27;;;27.10;28.20;;;;;;10582680;28;20618;-76
2022/08/30 19:15:09;;;;;;;5.47;5.03;;;27.00;27.70;;;;;;10583752;28;20606;-77
2022/08/30 19:20:18;;;;;;;5.70;5.30;;;26.90;28.00;;;;;;10582399;28;21076;-77
2022/08/30 19:25:22;;;;;;;6.33;5.67;;;26.80;27.90;;;;;;10582620;28;20600;-77
2022/08/30 19:30:28;;;;;;;5.80;5.23;;;26.80;28.00;;;;;;10581712;28;20306;-77
2022/08/30 19:35:32;;;;;;;5.37;4.97;;;26.60;28.20;;;;;;10581009;28;20698;-77
2022/08/30 19:40:35;;;;;;;5.60;5.20;;;26.60;28.10;;;;;;10582579;28;20231;-77
2022/08/30 19:45:40;;;;;;;5.43;5.03;;;26.50;28.30;;;;;;10582231;28;20726;-77
2022/08/30 19:50:43;;;;;;;5.60;5.10;;;26.40;28.50;;;;;;10581924;28;20233;-76
2022/08/30 19:55:46;;;;;;;5.73;5.20;;;26.30;28.50;;;;;;10581630;28;20233;-77
2022/08/30 20:00:51;;;;;;;6.23;5.73;;;26.20;28.60;;;;;;10581173;28;20235;-77
2022/08/30 20:06:13;;;;;;;5.60;5.20;;;26.10;29.00;;;;;;10580440;28;20706;-77
2022/08/30 20:11:19;;;;;;;5.90;5.40;;;26.00;28.70;;;;;;10581023;28;20426;-77
2022/08/30 20:16:24;;;;;;;5.20;4.90;;;25.90;29.10;;;;;;10580120;28;20237;-77
2022/08/30 20:21:39;;;;;;;6.00;5.50;;;25.70;29.00;;;;;;10579648;28;20226;-77
2022/08/30 20:26:43;;;;;;;5.73;5.33;;;25.60;29.00;;;;;;10579845;28;20724;-76
2022/08/30 20:31:48;;;;;;;5.83;5.33;;;25.50;28.90;;;;;;10579852;28;20545;-78
2022/08/30 20:36:51;;;;;;;6.10;5.60;;;25.40;29.10;;;;;;10579681;28;20223;-77
2022/08/30 20:41:57;;;;;;;5.37;5.07;;;25.40;29.10;;;;;;10579145;28;20234;-77
2022/08/30 20:47:02;;;;;;;5.70;5.30;;;25.30;29.00;;;;;;10579111;28;20294;-77
2022/08/30 20:52:05;;;;;;;5.80;5.30;;;25.20;29.40;;;;;;10579772;28;20237;-77
2022/08/30 20:57:11;;;;;;;6.27;5.77;;;25.10;29.30;;;;;;10578872;28;20719;-77
2022/08/30 21:02:17;;;;;;;5.63;5.13;;;24.90;29.40;;;;;;10578152;28;20234;-77
2022/08/30 21:07:20;;;;;;;5.70;5.20;;;24.90;29.90;;;;;;10577877;28;20284;-78
2022/08/30 21:12:23;;;;;;;5.73;5.30;;;24.70;29.70;;;;;;10577261;28;20234;-77
2022/08/30 21:17:29;;;;;;;6.43;5.83;;;24.60;29.80;;;;;;10577773;28;20226;-77
2022/08/30 21:22:32;;;;;;;6.47;5.87;;;24.50;30.30;;;;;;10577619;28;20226;-77
2022/08/30 21:27:35;;;;;;;5.70;5.30;;;24.40;30.10;;;;;;10576979;28;20227;-76
2022/08/30 21:32:40;;;;;;;6.00;5.53;;;24.30;30.10;;;;;;10577210;28;20226;-77
2022/08/30 21:37:43;;;;;;;5.87;5.37;;;24.20;30.90;;;;;;10577947;28;20234;-77
2022/08/30 21:42:47;;;;;;;6.50;5.80;;;24.10;30.40;;;;;;10577307;28;20226;-78
2022/08/30 21:47:52;;;;;;;5.93;5.33;;;24.00;30.80;;;;;;10577351;28;20284;-78
2022/08/30 21:52:55;;;;;;;6.30;5.80;;;23.90;31.20;;;;;;10577245;28;20235;-77
2022/08/30 21:57:58;;;;;;;6.33;5.83;;;23.90;30.90;;;;;;10580038;28;20741;-77
2022/08/30 22:03:03;;;;;;;7.13;6.53;;;23.80;30.80;;;;;;10585172;28;20241;-77
2022/08/30 22:08:07;;;;;;;6.67;6.07;;;23.70;31.30;;;;;;10584429;28;20244;-76
2022/08/30 22:13:11;;;;;;;6.47;5.80;;;23.70;31.40;;;;;;10584156;28;20231;-77
2022/08/30 22:18:16;;;;;;;6.60;5.67;;;23.60;31.20;;;;;;10584196;28;20223;-77
2022/08/30 22:23:20;;;;;;;6.60;6.10;;;23.60;31.70;;;;;;10584126;28;20238;-77
2022/08/30 22:28:23;;;;;;;6.33;5.73;;;23.50;31.40;;;;;;10585161;28;20231;-77
2022/08/30 22:33:27;;;;;;;6.30;5.80;;;23.50;31.60;;;;;;10584161;28;20231;-77
2022/08/30 22:38:31;;;;;;;6.20;5.70;;;23.40;32.00;;;;;;10583532;28;20227;-77
2022/08/30 22:43:34;;;;;;;6.60;6.10;;;23.40;31.80;;;;;;10584060;28;20237;-77
2022/08/30 22:48:43;;;;;;;6.93;6.43;;;23.30;31.80;;;;;;10583753;28;20231;-77
2022/08/30 22:53:46;;;;;;;6.70;6.20;;;23.30;32.70;;;;;;10582938;28;20231;-77
2022/08/30 22:58:49;;;;;;;5.57;5.17;;;23.20;32.10;;;;;;10582751;28;20222;-77
2022/08/30 23:03:55;;;;;;;6.20;5.70;;;23.10;32.10;;;;;;10582249;28;20606;-77
2022/08/30 23:08:59;;;;;;;6.47;5.97;;;23.10;32.90;;;;;;10581359;28;20231;-77
2022/08/30 23:14:04;;;;;;;6.40;5.90;;;23.00;32.60;;;;;;10582194;28;20230;-76
2022/08/30 23:19:08;;;;;;;6.70;6.10;;;23.00;32.80;;;;;;10570546;28;20290;-77
